Time;durP1;ratioP1;P1;durP2;ratioP2;P2;SDS_P1;SDS_P2;PMS_P1;PMS_P2;Temp;Humidity;BMP_temperature;BMP_pressure;BME280_temperature;BME280_humidity;BME280_pressure;Samples;Min_cycle;Max_cycle;Signal;HPM_P1;HPM_P2
2023/10/28 00:02:23;;;;;;;;;;;;;;;;;;109367;1251;59141;-81
2023/10/28 00:04:51;;;;;;;;;;;;;;;;;;109374;1251;59682;-80
2023/10/28 00:07:17;;;;;;;;;;;;;;;;;;109399;1251;59074;-81
2023/10/28 00:09:43;;;;;;;;;;;;;;;;;;109408;1251;59204;-81
2023/10/28 00:12:12;;;;;;;;;;;;;;;;;;109404;1250;58969;-80
2023/10/28 00:14:38;;;;;;;;;;;;;;;;;;109366;1251;59027;-81
2023/10/28 00:17:05;;;;;;;;;;;;;;;;;;109361;1251;59647;-81
2023/10/28 00:19:31;;;;;;;;;;;;;;;;;;109390;1251;59167;-81
2023/10/28 00:21:58;;;;;;;;;;;;;;;;;;109410;1251;59610;-81
2023/10/28 00:24:25;;;;;;;;;;;;;;;;;;109359;1251;59624;-81
2023/10/28 00:26:51;;;;;;;;;;;;;;;;;;109377;1251;59109;-81
2023/10/28 00:29:17;;;;;;;;;;;;;;;;;;109375;1251;59108;-81
2023/10/28 00:31:44;;;;;;;;;;;;;;;;;;109376;1251;59718;-80
2023/10/28 00:34:10;;;;;;;;;;;;;;;;;;109399;1251;59092;-81
2023/10/28 00:36:36;;;;;;;;;;;;;;;;;;109396;1251;59655;-81
2023/10/28 00:39:03;;;;;;;;;;;;;;;;;;109397;1251;59214;-81
2023/10/28 00:41:32;;;;;;;;;;;;;;;;;;109411;1251;59127;-81
2023/10/28 00:43:58;;;;;;;;;;;;;;;;;;109322;1251;59298;-81
2023/10/28 00:46:24;;;;;;;;;;;;;;;;;;109387;1251;59029;-81
2023/10/28 00:48:52;;;;;;;;;;;;;;;;;;109370;1253;59736;-81
2023/10/28 00:51:19;;;;;;;;;;;;;;;;;;109302;1251;59379;-81
2023/10/28 00:53:45;;;;;;;;;;;;;;;;;;109308;1251;59937;-81
2023/10/28 00:56:12;;;;;;;;;;;;;;;;;;109291;1251;59653;-81
2023/10/28 00:58:39;;;;;;;;;;;;;;;;;;109358;1251;58993;-81
2023/10/28 01:01:05;;;;;;;;;;;;;;;;;;109348;1251;59383;-81
2023/10/28 01:03:32;;;;;;;;;;;;;;;;;;109335;1251;59273;-81
2023/10/28 01:05:58;;;;;;;;;;;;;;;;;;109369;1251;59668;-80
2023/10/28 01:08:24;;;;;;;;;;;;;;;;;;109399;1251;59616;-81
2023/10/28 01:10:51;;;;;;;;;;;;;;;;;;109375;1251;59303;-80
2023/10/28 01:13:17;;;;;;;;;;;;;;;;;;109267;1251;139446;-80
2023/10/28 01:15:43;;;;;;;;;;;;;;;;;;109387;1250;59336;-80
2023/10/28 01:18:10;;;;;;;;;;;;;;;;;;109414;1251;59262;-81
2023/10/28 01:20:36;;;;;;;;;;;;;;;;;;109366;1251;59016;-80
2023/10/28 01:23:02;;;;;;;;;;;;;;;;;;109381;1251;59631;-80
2023/10/28 01:25:29;;;;;;;;;;;;;;;;;;109382;1251;59139;-81
2023/10/28 01:27:56;;;;;;;;;;;;;;;;;;109374;1251;59574;-81
2023/10/28 01:30:22;;;;;;;;;;;;;;;;;;109391;1251;59095;-81
2023/10/28 01:32:48;;;;;;;;;;;;;;;;;;109385;1251;59397;-80
2023/10/28 01:35:14;;;;;;;;;;;;;;;;;;109433;1251;59103;-80
2023/10/28 01:37:41;;;;;;;;;;;;;;;;;;109427;1251;59745;-81
2023/10/28 01:40:17;;;;;;;;;;;;;;;;;;109383;1251;59540;-81
2023/10/28 01:42:44;;;;;;;;;;;;;;;;;;109358;1251;59353;-80
2023/10/28 01:45:10;;;;;;;;;;;;;;;;;;109420;1251;59000;-80
2023/10/28 01:47:37;;;;;;;;;;;;;;;;;;109310;1252;59062;-80
2023/10/28 01:50:04;;;;;;;;;;;;;;;;;;109359;1252;60464;-81
2023/10/28 01:52:30;;;;;;;;;;;;;;;;;;109366;1251;59176;-80
2023/10/28 01:54:56;;;;;;;;;;;;;;;;;;109321;1251;59398;-81
2023/10/28 01:57:22;;;;;;;;;;;;;;;;;;109292;1251;59136;-80
2023/10/28 01:59:49;;;;;;;;;;;;;;;;;;109322;1252;59087;-80
2023/10/28 02:02:15;;;;;;;;;;;;;;;;;;109346;1251;59673;-81
2023/10/28 02:04:41;;;;;;;;;;;;;;;;;;109321;1251;59218;-81
2023/10/28 02:07:07;;;;;;;;;;;;;;;;;;109387;1251;60304;-81
2023/10/28 02:09:34;;;;;;;;;;;;;;;;;;109388;1251;59148;-81
2023/10/28 02:12:04;;;;;;;;;;;;;;;;;;109405;1251;59683;-81
2023/10/28 02:14:30;;;;;;;;;;;;;;;;;;109446;1251;60767;-81
2023/10/28 02:16:56;;;;;;;;;;;;;;;;;;109438;1251;59573;-81
2023/10/28 02:19:23;;;;;;;;;;;;;;;;;;109343;1251;59702;-81
2023/10/28 02:21:49;;;;;;;;;;;;;;;;;;109382;1251;59050;-82
2023/10/28 02:24:19;;;;;;;;;;;;;;;;;;109379;1251;59642;-81
2023/10/28 02:26:46;;;;;;;;;;;;;;;;;;109429;1251;60790;-81
2023/10/28 02:29:12;;;;;;;;;;;;;;;;;;109411;1254;59332;-81
2023/10/28 02:31:38;;;;;;;;;;;;;;;;;;109419;1251;59409;-81
2023/10/28 02:34:05;;;;;;;;;;;;;;;;;;109364;1251;59592;-80
2023/10/28 02:36:31;;;;;;;;;;;;;;;;;;109399;1251;59065;-81
2023/10/28 02:38:57;;;;;;;;;;;;;;;;;;109328;1251;59116;-81
2023/10/28 02:41:24;;;;;;;;;;;;;;;;;;109359;1251;59145;-80
2023/10/28 02:43:51;;;;;;;;;;;;;;;;;;109321;1251;59210;-80
2023/10/28 02:46:17;;;;;;;;;;;;;;;;;;109373;1251;59417;-82
2023/10/28 02:48:43;;;;;;;;;;;;;;;;;;109382;1251;59328;-80
2023/10/28 02:51:11;;;;;;;;;;;;;;;;;;109441;1251;59756;-80
2023/10/28 02:53:37;;;;;;;;;;;;;;;;;;109423;1251;58917;-80
2023/10/28 02:56:03;;;;;;;;;;;;;;;;;;109395;1251;59347;-80
2023/10/28 02:58:30;;;;;;;;;;;;;;;;;;109387;1251;59717;-80
2023/10/28 03:00:57;;;;;;;;;;;;;;;;;;109437;1251;59044;-81
2023/10/28 03:03:23;;;;;;;;;;;;;;;;;;109406;1251;59210;-80
2023/10/28 03:05:52;;;;;;;;;;;;;;;;;;109414;1251;59923;-81
2023/10/28 03:08:18;;;;;;;;;;;;;;;;;;109405;1251;60851;-81
2023/10/28 03:10:44;;;;;;;;;;;;;;;;;;109393;1251;59752;-81
2023/10/28 03:13:11;;;;;;;;;;;;;;;;;;109420;1251;59027;-81
2023/10/28 03:15:37;;;;;;;;;;;;;;;;;;109403;1251;59399;-81
2023/10/28 03:18:03;;;;;;;;;;;;;;;;;;109396;1250;59666;-81
2023/10/28 03:20:30;;;;;;;;;;;;;;;;;;109399;1251;59121;-81
2023/10/28 03:22:56;;;;;;;;;;;;;;;;;;109399;1251;58958;-81
2023/10/28 03:25:23;;;;;;;;;;;;;;;;;;109401;1251;59749;-80
2023/10/28 03:27:50;;;;;;;;;;;;;;;;;;109408;1251;59025;-80
2023/10/28 03:30:17;;;;;;;;;;;;;;;;;;109374;1251;59376;-80
2023/10/28 03:32:44;;;;;;;;;;;;;;;;;;109416;1251;59026;-81
2023/10/28 03:35:10;;;;;;;;;;;;;;;;;;109381;1250;59382;-81
2023/10/28 03:37:37;;;;;;;;;;;;;;;;;;109431;1251;59147;-81
2023/10/28 03:40:04;;;;;;;;;;;;;;;;;;109392;1251;62562;-81
2023/10/28 03:42:31;;;;;;;;;;;;;;;;;;109425;1251;59605;-81
2023/10/28 03:44:59;;;;;;;;;;;;;;;;;;109445;1251;59062;-81
2023/10/28 03:47:25;;;;;;;;;;;;;;;;;;109336;1254;59659;-80
2023/10/28 03:49:51;;;;;;;;;;;;;;;;;;109362;1251;59269;-80
2023/10/28 03:52:17;;;;;;;;;;;;;;;;;;109333;1251;59100;-80
2023/10/28 03:54:44;;;;;;;;;;;;;;;;;;109376;1251;59039;-81
2023/10/28 03:57:10;;;;;;;;;;;;;;;;;;109319;1253;59166;-80
2023/10/28 03:59:36;;;;;;;;;;;;;;;;;;109309;1251;59726;-81
2023/10/28 04:02:03;;;;;;;;;;;;;;;;;;109311;1255;59709;-80
2023/10/28 04:04:29;;;;;;;;;;;;;;;;;;109351;1251;59908;-81
2023/10/28 04:06:56;;;;;;;;;;;;;;;;;;109382;1251;59581;-80
2023/10/28 04:09:22;;;;;;;;;;;;;;;;;;109412;1251;58953;-81
2023/10/28 04:11:48;;;;;;;;;;;;;;;;;;109358;1253;59739;-81
2023/10/28 04:14:16;;;;;;;;;;;;;;;;;;109407;1251;59048;-80
2023/10/28 04:16:42;;;;;;;;;;;;;;;;;;109401;1251;59560;-81
2023/10/28 04:19:09;;;;;;;;;;;;;;;;;;109405;1251;59074;-80
2023/10/28 04:21:35;;;;;;;;;;;;;;;;;;109416;1251;59089;-81
2023/10/28 04:24:02;;;;;;;;;;;;;;;;;;109416;1253;59014;-81
2023/10/28 04:26:28;;;;;;;;;;;;;;;;;;109404;1251;59826;-82
2023/10/28 04:28:59;;;;;;;;;;;;;;;;;;109413;1251;59092;-80
2023/10/28 04:31:26;;;;;;;;;;;;;;;;;;109421;1251;59657;-80
2023/10/28 04:33:52;;;;;;;;;;;;;;;;;;109414;1251;59880;-81
2023/10/28 04:36:18;;;;;;;;;;;;;;;;;;109393;1251;58965;-81
2023/10/28 04:38:45;;;;;;;;;;;;;;;;;;109407;1250;59023;-80
2023/10/28 04:41:11;;;;;;;;;;;;;;;;;;109407;1250;59379;-80
2023/10/28 04:43:39;;;;;;;;;;;;;;;;;;109398;1251;58971;-81
2023/10/28 04:46:05;;;;;;;;;;;;;;;;;;109381;1251;60501;-80
2023/10/28 04:48:33;;;;;;;;;;;;;;;;;;109311;1253;59054;-81
2023/10/28 04:50:59;;;;;;;;;;;;;;;;;;109349;1251;59547;-80
2023/10/28 04:53:26;;;;;;;;;;;;;;;;;;109297;1253;60718;-80
2023/10/28 04:55:53;;;;;;;;;;;;;;;;;;109306;1252;59421;-81
2023/10/28 04:58:21;;;;;;;;;;;;;;;;;;109304;1252;59512;-80
2023/10/28 05:00:47;;;;;;;;;;;;;;;;;;109275;1252;59759;-81
2023/10/28 05:03:14;;;;;;;;;;;;;;;;;;109320;1253;59020;-81
2023/10/28 05:05:40;;;;;;;;;;;;;;;;;;109377;1253;59647;-81
2023/10/28 05:08:06;;;;;;;;;;;;;;;;;;109383;1251;59849;-80
2023/10/28 05:10:33;;;;;;;;;;;;;;;;;;109414;1251;59055;-81
2023/10/28 05:12:59;;;;;;;;;;;;;;;;;;109361;1251;59259;-81
2023/10/28 05:15:25;;;;;;;;;;;;;;;;;;109460;1251;58972;-80
2023/10/28 05:17:52;;;;;;;;;;;;;;;;;;109399;1253;59023;-80
2023/10/28 05:20:18;;;;;;;;;;;;;;;;;;109392;1251;59088;-80
2023/10/28 05:22:45;;;;;;;;;;;;;;;;;;109372;1253;59697;-80
2023/10/28 05:25:12;;;;;;;;;;;;;;;;;;109381;1251;59769;-80
2023/10/28 05:27:39;;;;;;;;;;;;;;;;;;109425;1251;59059;-81
2023/10/28 05:30:06;;;;;;;;;;;;;;;;;;109380;1251;61604;-81
2023/10/28 05:32:32;;;;;;;;;;;;;;;;;;109387;1250;59414;-80
2023/10/28 05:34:59;;;;;;;;;;;;;;;;;;109416;1251;59023;-81
2023/10/28 05:37:27;;;;;;;;;;;;;;;;;;109340;1250;60289;-80
2023/10/28 05:39:53;;;;;;;;;;;;;;;;;;109322;1251;59104;-80
2023/10/28 05:42:20;;;;;;;;;;;;;;;;;;109319;1252;58946;-80
2023/10/28 05:44:47;;;;;;;;;;;;;;;;;;109346;1251;59086;-80
2023/10/28 05:47:13;;;;;;;;;;;;;;;;;;109338;1251;59722;-81
2023/10/28 05:49:40;;;;;;;;;;;;;;;;;;109404;1251;59320;-81
2023/10/28 05:52:07;;;;;;;;;;;;;;;;;;109368;1251;59311;-80
2023/10/28 05:54:33;;;;;;;;;;;;;;;;;;109397;1253;60356;-80
2023/10/28 05:57:00;;;;;;;;;;;;;;;;;;109415;1251;59731;-80
2023/10/28 05:59:26;;;;;;;;;;;;;;;;;;109401;1251;59059;-80
2023/10/28 06:01:52;;;;;;;;;;;;;;;;;;109417;1250;59118;-81
2023/10/28 06:04:21;;;;;;;;;;;;;;;;;;109382;1250;59338;-80
2023/10/28 06:06:48;;;;;;;;;;;;;;;;;;109450;1251;61783;-80
2023/10/28 06:09:15;;;;;;;;;;;;;;;;;;109418;1253;59691;-81
2023/10/28 06:11:41;;;;;;;;;;;;;;;;;;109428;1250;59455;-81
2023/10/28 06:14:08;;;;;;;;;;;;;;;;;;109424;1253;59741;-80
2023/10/28 06:16:34;;;;;;;;;;;;;;;;;;109401;1251;59135;-81
2023/10/28 06:19:01;;;;;;;;;;;;;;;;;;109413;1251;62662;-80
2023/10/28 06:21:27;;;;;;;;;;;;;;;;;;109419;1250;59570;-81
2023/10/28 06:23:53;;;;;;;;;;;;;;;;;;109413;1252;59449;-81
2023/10/28 06:26:20;;;;;;;;;;;;;;;;;;109437;1251;59486;-81
2023/10/28 06:28:47;;;;;;;;;;;;;;;;;;109432;1251;59048;-80
2023/10/28 06:31:14;;;;;;;;;;;;;;;;;;109356;1251;61940;-82
2023/10/28 06:33:40;;;;;;;;;;;;;;;;;;109452;1251;59279;-80
2023/10/28 06:36:08;;;;;;;;;;;;;;;;;;109361;1251;59883;-81
2023/10/28 06:38:35;;;;;;;;;;;;;;;;;;109403;1250;59657;-81
2023/10/28 06:41:01;;;;;;;;;;;;;;;;;;109454;1250;59856;-81
2023/10/28 06:43:27;;;;;;;;;;;;;;;;;;109454;1251;59106;-80
2023/10/28 06:45:54;;;;;;;;;;;;;;;;;;109415;1253;59708;-81
2023/10/28 06:48:20;;;;;;;;;;;;;;;;;;109470;1251;59115;-81
2023/10/28 06:50:48;;;;;;;;;;;;;;;;;;109464;1252;59419;-81
2023/10/28 06:53:14;;;;;;;;;;;;;;;;;;109432;1251;59682;-81
2023/10/28 06:55:41;;;;;;;;;;;;;;;;;;109451;1253;59558;-80
2023/10/28 06:58:07;;;;;;;;;;;;;;;;;;109429;1250;59106;-81
2023/10/28 07:00:33;;;;;;;;;;;;;;;;;;109398;1253;59066;-81
2023/10/28 07:03:00;;;;;;;;;;;;;;;;;;109384;1251;59145;-80
2023/10/28 07:05:26;;;;;;;;;;;;;;;;;;109355;1251;59698;-81
2023/10/28 07:07:54;;;;;;;;;;;;;;;;;;109346;1251;59264;-81
2023/10/28 07:10:20;;;;;;;;;;;;;;;;;;109509;1254;58841;-81
2023/10/28 07:12:46;;;;;;;;;;;;;;;;;;109360;1251;59590;-81
2023/10/28 07:15:12;;;;;;;;;;;;;;;;;;109343;1251;59096;-81
2023/10/28 07:17:43;;;;;;;;;;;;;;;;;;109338;1251;59088;-82
2023/10/28 07:20:09;;;;;;;;;;;;;;;;;;109461;1250;61986;-81
2023/10/28 07:22:36;;;;;;;;;;;;;;;;;;109364;1252;59281;-81
2023/10/28 07:25:02;;;;;;;;;;;;;;;;;;109365;1251;59799;-81
2023/10/28 07:27:28;;;;;;;;;;;;;;;;;;109388;1253;59283;-81
2023/10/28 07:29:55;;;;;;;;;;;;;;;;;;109373;1251;59145;-81
2023/10/28 07:32:21;;;;;;;;;;;;;;;;;;109408;1253;59700;-81
2023/10/28 07:34:48;;;;;;;;;;;;;;;;;;109382;1253;59061;-81
2023/10/28 07:37:14;;;;;;;;;;;;;;;;;;109350;1254;59120;-81
2023/10/28 07:39:42;;;;;;;;;;;;;;;;;;109408;1251;59648;-81
2023/10/28 07:42:09;;;;;;;;;;;;;;;;;;109407;1251;58907;-81
2023/10/28 07:44:36;;;;;;;;;;;;;;;;;;109334;1251;59431;-80
2023/10/28 07:47:03;;;;;;;;;;;;;;;;;;109421;1251;58963;-81
2023/10/28 07:49:29;;;;;;;;;;;;;;;;;;109433;1251;59077;-81
2023/10/28 07:51:55;;;;;;;;;;;;;;;;;;109400;1251;59027;-81
2023/10/28 07:54:21;;;;;;;;;;;;;;;;;;109348;1251;58996;-81
2023/10/28 07:56:48;;;;;;;;;;;;;;;;;;109374;1253;59163;-81
2023/10/28 07:59:14;;;;;;;;;;;;;;;;;;109401;1251;59831;-81
2023/10/28 08:01:41;;;;;;;;;;;;;;;;;;109346;1251;59327;-81
2023/10/28 08:04:07;;;;;;;;;;;;;;;;;;109394;1251;59702;-81
2023/10/28 08:06:34;;;;;;;;;;;;;;;;;;109339;1251;59044;-81
2023/10/28 08:09:01;;;;;;;;;;;;;;;;;;109410;1255;59734;-82
2023/10/28 08:11:29;;;;;;;;;;;;;;;;;;109374;1251;59106;-81
2023/10/28 08:13:56;;;;;;;;;;;;;;;;;;109366;1251;60782;-81
2023/10/28 08:16:23;;;;;;;;;;;;;;;;;;109371;1251;59034;-81
2023/10/28 08:18:49;;;;;;;;;;;;;;;;;;109342;1251;58995;-81
2023/10/28 08:21:16;;;;;;;;;;;;;;;;;;109335;1251;59096;-81
2023/10/28 08:23:43;;;;;;;;;;;;;;;;;;109362;1254;59812;-81
2023/10/28 08:26:10;;;;;;;;;;;;;;;;;;109388;1251;59776;-81
2023/10/28 08:28:36;;;;;;;;;;;;;;;;;;109360;1250;59703;-81
2023/10/28 08:31:03;;;;;;;;;;;;;;;;;;109382;1252;59531;-81
2023/10/28 08:33:31;;;;;;;;;;;;;;;;;;109411;1251;60400;-81
2023/10/28 08:35:58;;;;;;;;;;;;;;;;;;109353;1253;59382;-81
2023/10/28 08:38:24;;;;;;;;;;;;;;;;;;109339;1251;59456;-81
2023/10/28 08:40:51;;;;;;;;;;;;;;;;;;109366;1250;59425;-82
2023/10/28 08:43:17;;;;;;;;;;;;;;;;;;109364;1251;59465;-81
2023/10/28 08:45:45;;;;;;;;;;;;;;;;;;109331;1251;59073;-81
2023/10/28 08:48:11;;;;;;;;;;;;;;;;;;109416;1251;58994;-82
2023/10/28 08:50:39;;;;;;;;;;;;;;;;;;109390;1254;59453;-82
2023/10/28 08:53:05;;;;;;;;;;;;;;;;;;109381;1251;59662;-81
2023/10/28 08:55:32;;;;;;;;;;;;;;;;;;109347;1251;59716;-82
2023/10/28 08:57:58;;;;;;;;;;;;;;;;;;109345;1251;59791;-82
2023/10/28 09:00:25;;;;;;;;;;;;;;;;;;109373;1251;59272;-81
2023/10/28 09:02:52;;;;;;;;;;;;;;;;;;109300;1255;59752;-81
2023/10/28 09:05:19;;;;;;;;;;;;;;;;;;109363;1251;59348;-82
2023/10/28 09:07:46;;;;;;;;;;;;;;;;;;109281;1251;60852;-82
2023/10/28 09:10:12;;;;;;;;;;;;;;;;;;109404;1251;59543;-81
2023/10/28 09:12:39;;;;;;;;;;;;;;;;;;109457;1250;59118;-81
2023/10/28 09:15:05;;;;;;;;;;;;;;;;;;109398;1251;59152;-82
2023/10/28 09:17:32;;;;;;;;;;;;;;;;;;109402;1251;60084;-82
2023/10/28 09:20:00;;;;;;;;;;;;;;;;;;109414;1251;59115;-82
2023/10/28 09:22:27;;;;;;;;;;;;;;;;;;109473;1251;60788;-81
2023/10/28 09:24:54;;;;;;;;;;;;;;;;;;109464;1251;59354;-81
2023/10/28 09:27:21;;;;;;;;;;;;;;;;;;109491;1251;59619;-82
2023/10/28 09:29:47;;;;;;;;;;;;;;;;;;109457;1251;59639;-81
2023/10/28 09:32:13;;;;;;;;;;;;;;;;;;109477;1251;59476;-81
2023/10/28 09:34:40;;;;;;;;;;;;;;;;;;109452;1251;59061;-81
2023/10/28 09:37:06;;;;;;;;;;;;;;;;;;109535;1251;59052;-81
2023/10/28 09:39:33;;;;;;;;;;;;;;;;;;109493;1251;59054;-81
2023/10/28 09:41:59;;;;;;;;;;;;;;;;;;109446;1254;59037;-81
2023/10/28 09:44:26;;;;;;;;;;;;;;;;;;109351;1251;59055;-82
2023/10/28 09:46:52;;;;;;;;;;;;;;;;;;109446;1251;59013;-81
2023/10/28 09:49:18;;;;;;;;;;;;;;;;;;109449;1251;59335;-81
2023/10/28 09:51:45;;;;;;;;;;;;;;;;;;109446;1251;59365;-82
2023/10/28 09:54:18;;;;;;;;;;;;;;;;;;109450;1250;59121;-81
2023/10/28 09:56:45;;;;;;;;;;;;;;;;;;109467;1251;59724;-81
2023/10/28 09:59:13;;;;;;;;;;;;;;;;;;109500;1249;59412;-81
2023/10/28 10:01:40;;;;;;;;;;;;;;;;;;109445;1251;59768;-82
2023/10/28 10:04:07;;;;;;;;;;;;;;;;;;109393;1251;59431;-81
2023/10/28 10:06:33;;;;;;;;;;;;;;;;;;109430;1251;59432;-82
2023/10/28 10:08:59;;;;;;;;;;;;;;;;;;109491;1251;59047;-81
2023/10/28 10:11:26;;;;;;;;;;;;;;;;;;109441;1250;59689;-81
2023/10/28 10:13:52;;;;;;;;;;;;;;;;;;109473;1251;60020;-81
2023/10/28 10:16:19;;;;;;;;;;;;;;;;;;109522;1251;59024;-82
2023/10/28 10:18:45;;;;;;;;;;;;;;;;;;109443;1251;59088;-81
2023/10/28 10:21:12;;;;;;;;;;;;;;;;;;109415;1251;59146;-81
2023/10/28 10:23:38;;;;;;;;;;;;;;;;;;109438;1251;59231;-81
2023/10/28 10:26:05;;;;;;;;;;;;;;;;;;109459;1251;59072;-81
2023/10/28 10:28:31;;;;;;;;;;;;;;;;;;109316;1251;59628;-81
2023/10/28 10:30:59;;;;;;;;;;;;;;;;;;109419;1251;59083;-81
2023/10/28 10:33:26;;;;;;;;;;;;;;;;;;109542;1250;58952;-81
2023/10/28 10:35:52;;;;;;;;;;;;;;;;;;109559;1251;59489;-81
2023/10/28 10:38:18;;;;;;;;;;;;;;;;;;109455;1251;59079;-81
2023/10/28 10:40:46;;;;;;;;;;;;;;;;;;109509;1249;59777;-81
2023/10/28 10:43:12;;;;;;;;;;;;;;;;;;109473;1251;59183;-81
2023/10/28 10:45:38;;;;;;;;;;;;;;;;;;109490;1250;59400;-81
2023/10/28 10:48:07;;;;;;;;;;;;;;;;;;109463;1251;59046;-81
2023/10/28 10:50:33;;;;;;;;;;;;;;;;;;109424;1251;59312;-81
2023/10/28 10:53:00;;;;;;;;;;;;;;;;;;109465;1251;59288;-81
2023/10/28 10:55:28;;;;;;;;;;;;;;;;;;109506;1251;59842;-81
2023/10/28 10:57:54;;;;;;;;;;;;;;;;;;109514;1251;59065;-81
2023/10/28 11:00:21;;;;;;;;;;;;;;;;;;109486;1251;62273;-81
2023/10/28 11:02:47;;;;;;;;;;;;;;;;;;109478;1251;59163;-81
2023/10/28 11:05:13;;;;;;;;;;;;;;;;;;109497;1251;59507;-81
2023/10/28 11:07:40;;;;;;;;;;;;;;;;;;109487;1250;59879;-81
2023/10/28 11:10:08;;;;;;;;;;;;;;;;;;109471;1251;59110;-81
2023/10/28 11:12:34;;;;;;;;;;;;;;;;;;109483;1251;62849;-81
2023/10/28 11:15:00;;;;;;;;;;;;;;;;;;109473;1251;59066;-81
2023/10/28 11:17:26;;;;;;;;;;;;;;;;;;109487;1251;59781;-81
2023/10/28 11:19:53;;;;;;;;;;;;;;;;;;109485;1251;59066;-81
2023/10/28 11:22:19;;;;;;;;;;;;;;;;;;109515;1251;59121;-81
2023/10/28 11:24:45;;;;;;;;;;;;;;;;;;109472;1251;59200;-82
2023/10/28 11:27:12;;;;;;;;;;;;;;;;;;109418;1251;59289;-81
2023/10/28 11:29:38;;;;;;;;;;;;;;;;;;109416;1251;59543;-81
2023/10/28 11:32:04;;;;;;;;;;;;;;;;;;109439;1251;59036;-81
2023/10/28 11:34:31;;;;;;;;;;;;;;;;;;109430;1250;59324;-82
2023/10/28 11:36:58;;;;;;;;;;;;;;;;;;109505;1250;59045;-81
2023/10/28 11:39:24;;;;;;;;;;;;;;;;;;109575;1250;59110;-81
2023/10/28 11:41:50;;;;;;;;;;;;;;;;;;109561;1250;59148;-81
2023/10/28 11:44:17;;;;;;;;;;;;;;;;;;109571;1251;59629;-81
2023/10/28 11:46:43;;;;;;;;;;;;;;;;;;109565;1250;59414;-81
2023/10/28 11:49:09;;;;;;;;;;;;;;;;;;109444;1251;59025;-81
2023/10/28 11:51:36;;;;;;;;;;;;;;;;;;109493;1250;59140;-81
2023/10/28 11:54:03;;;;;;;;;;;;;;;;;;109417;1251;59830;-81
2023/10/28 11:56:32;;;;;;;;;;;;;;;;;;109484;1251;59045;-81
2023/10/28 11:58:59;;;;;;;;;;;;;;;;;;109464;1251;59049;-81
2023/10/28 12:01:26;;;;;;;;;;;;;;;;;;109499;1251;60472;-81
2023/10/28 12:03:52;;;;;;;;;;;;;;;;;;109510;1251;59893;-81
2023/10/28 12:06:20;;;;;;;;;;;;;;;;;;109575;1250;59608;-82
2023/10/28 12:08:48;;;;;;;;;;;;;;;;;;109463;1251;59036;-81
2023/10/28 12:11:15;;;;;;;;;;;;;;;;;;109487;1251;59239;-81
2023/10/28 12:13:42;;;;;;;;;;;;;;;;;;109479;1251;60039;-82
2023/10/28 12:16:09;;;;;;;;;;;;;;;;;;109445;1251;59141;-81
2023/10/28 12:18:36;;;;;;;;;;;;;;;;;;109443;1251;59651;-81
2023/10/28 12:21:02;;;;;;;;;;;;;;;;;;109480;1250;59681;-81
2023/10/28 12:23:28;;;;;;;;;;;;;;;;;;109495;1251;60661;-81
2023/10/28 12:25:55;;;;;;;;;;;;;;;;;;109481;1251;59197;-81
2023/10/28 12:28:22;;;;;;;;;;;;;;;;;;109448;1250;59068;-81
2023/10/28 12:30:49;;;;;;;;;;;;;;;;;;109464;1250;59004;-81
2023/10/28 12:33:16;;;;;;;;;;;;;;;;;;109492;1251;59823;-81
2023/10/28 12:35:42;;;;;;;;;;;;;;;;;;109509;1251;59059;-81
2023/10/28 12:38:09;;;;;;;;;;;;;;;;;;109477;1250;59386;-82
2023/10/28 12:40:35;;;;;;;;;;;;;;;;;;109490;1251;59238;-81
2023/10/28 12:43:02;;;;;;;;;;;;;;;;;;109433;1251;59025;-81
2023/10/28 12:45:29;;;;;;;;;;;;;;;;;;109470;1251;58993;-81
2023/10/28 12:47:56;;;;;;;;;;;;;;;;;;109472;1250;59757;-81
2023/10/28 12:50:22;;;;;;;;;;;;;;;;;;109475;1250;61823;-81
2023/10/28 12:52:49;;;;;;;;;;;;;;;;;;109529;1250;59315;-81
2023/10/28 12:55:16;;;;;;;;;;;;;;;;;;109519;1250;59741;-81
2023/10/28 12:57:42;;;;;;;;;;;;;;;;;;109602;1249;59180;-81
2023/10/28 13:00:10;;;;;;;;;;;;;;;;;;109550;1249;59878;-81
2023/10/28 13:02:36;;;;;;;;;;;;;;;;;;109569;1250;62569;-81
2023/10/28 13:05:03;;;;;;;;;;;;;;;;;;109540;1250;59067;-81
2023/10/28 13:07:30;;;;;;;;;;;;;;;;;;109487;1250;59083;-81
2023/10/28 13:09:56;;;;;;;;;;;;;;;;;;109475;1250;59104;-81
2023/10/28 13:12:22;;;;;;;;;;;;;;;;;;109475;1250;59033;-81
2023/10/28 13:14:49;;;;;;;;;;;;;;;;;;109360;1250;164558;-81
2023/10/28 13:17:15;;;;;;;;;;;;;;;;;;109479;1254;59018;-82
2023/10/28 13:19:41;;;;;;;;;;;;;;;;;;109418;1250;59056;-81
2023/10/28 13:22:08;;;;;;;;;;;;;;;;;;109457;1250;59831;-81
2023/10/28 13:24:34;;;;;;;;;;;;;;;;;;109450;1250;59697;-81
2023/10/28 13:27:00;;;;;;;;;;;;;;;;;;109479;1250;58995;-81
2023/10/28 13:29:27;;;;;;;;;;;;;;;;;;109447;1251;58995;-81
2023/10/28 13:31:54;;;;;;;;;;;;;;;;;;109456;1250;59413;-81
2023/10/28 13:34:20;;;;;;;;;;;;;;;;;;109404;1250;59014;-81
2023/10/28 13:36:48;;;;;;;;;;;;;;;;;;109473;1251;59387;-81
2023/10/28 13:39:14;;;;;;;;;;;;;;;;;;109582;1251;60373;-81
2023/10/28 13:41:41;;;;;;;;;;;;;;;;;;109566;1251;59405;-81
2023/10/28 13:44:07;;;;;;;;;;;;;;;;;;109606;1250;59287;-81
2023/10/28 13:46:37;;;;;;;;;;;;;;;;;;109544;1250;59081;-81
2023/10/28 13:49:04;;;;;;;;;;;;;;;;;;109442;1250;58933;-81
2023/10/28 13:51:30;;;;;;;;;;;;;;;;;;109439;1250;59052;-82
2023/10/28 13:53:57;;;;;;;;;;;;;;;;;;109485;1250;59412;-81
2023/10/28 13:56:23;;;;;;;;;;;;;;;;;;109418;1251;59145;-81
2023/10/28 13:58:49;;;;;;;;;;;;;;;;;;109421;1251;59023;-81
2023/10/28 14:01:16;;;;;;;;;;;;;;;;;;109459;1250;59115;-82
2023/10/28 14:03:42;;;;;;;;;;;;;;;;;;109505;1250;59079;-81
2023/10/28 14:06:11;;;;;;;;;;;;;;;;;;109503;1250;59498;-81
2023/10/28 14:08:38;;;;;;;;;;;;;;;;;;109425;1250;60368;-81
2023/10/28 14:11:05;;;;;;;;;;;;;;;;;;109457;1250;59107;-81
2023/10/28 14:13:31;;;;;;;;;;;;;;;;;;109420;1250;59123;-81
2023/10/28 14:16:02;;;;;;;;;;;;;;;;;;109398;1250;59323;-81
2023/10/28 14:18:29;;;;;;;;;;;;;;;;;;109402;1250;59138;-82
2023/10/28 14:20:56;;;;;;;;;;;;;;;;;;109558;1249;58999;-81
2023/10/28 14:23:24;;;;;;;;;;;;;;;;;;109616;1250;59648;-81
2023/10/28 14:25:50;;;;;;;;;;;;;;;;;;109613;1249;59589;-81
2023/10/28 14:28:16;;;;;;;;;;;;;;;;;;109602;1251;59645;-81
2023/10/28 14:30:43;;;;;;;;;;;;;;;;;;109597;1250;58828;-80
2023/10/28 14:33:10;;;;;;;;;;;;;;;;;;109588;1250;60854;-81
2023/10/28 14:35:36;;;;;;;;;;;;;;;;;;109584;1250;59428;-81
2023/10/28 14:38:03;;;;;;;;;;;;;;;;;;109587;1249;59045;-81
2023/10/28 14:40:29;;;;;;;;;;;;;;;;;;109581;1250;59462;-80
2023/10/28 14:42:55;;;;;;;;;;;;;;;;;;109553;1250;59373;-81
2023/10/28 14:45:22;;;;;;;;;;;;;;;;;;109570;1250;59294;-81
2023/10/28 14:47:51;;;;;;;;;;;;;;;;;;109458;1250;59370;-81
2023/10/28 14:50:18;;;;;;;;;;;;;;;;;;109494;1250;58996;-80
2023/10/28 14:52:44;;;;;;;;;;;;;;;;;;109455;1250;59114;-81
2023/10/28 14:55:11;;;;;;;;;;;;;;;;;;109466;1250;59122;-81
2023/10/28 14:57:38;;;;;;;;;;;;;;;;;;109473;1250;59219;-81
2023/10/28 15:00:04;;;;;;;;;;;;;;;;;;109341;1251;59611;-80
2023/10/28 15:02:30;;;;;;;;;;;;;;;;;;109418;1250;59045;-81
2023/10/28 15:04:57;;;;;;;;;;;;;;;;;;109488;1250;59666;-81
2023/10/28 15:07:23;;;;;;;;;;;;;;;;;;109320;1250;60306;-82
2023/10/28 15:09:50;;;;;;;;;;;;;;;;;;109518;1250;59198;-82
2023/10/28 15:12:16;;;;;;;;;;;;;;;;;;109510;1249;59549;-81
2023/10/28 15:14:42;;;;;;;;;;;;;;;;;;109545;1250;59211;-80
2023/10/28 15:17:09;;;;;;;;;;;;;;;;;;109550;1250;59065;-81
2023/10/28 15:19:36;;;;;;;;;;;;;;;;;;109592;1249;59743;-81
2023/10/28 15:22:02;;;;;;;;;;;;;;;;;;109577;1249;59727;-81
2023/10/28 15:24:28;;;;;;;;;;;;;;;;;;109593;1249;59056;-81
2023/10/28 15:26:54;;;;;;;;;;;;;;;;;;109570;1251;59349;-81
2023/10/28 15:29:21;;;;;;;;;;;;;;;;;;109596;1250;59203;-81
2023/10/28 15:31:47;;;;;;;;;;;;;;;;;;109571;1250;59629;-80
2023/10/28 15:34:14;;;;;;;;;;;;;;;;;;109565;1249;59048;-81
2023/10/28 15:36:40;;;;;;;;;;;;;;;;;;109580;1250;59077;-82
2023/10/28 15:39:06;;;;;;;;;;;;;;;;;;109618;1250;59750;-81
2023/10/28 15:41:34;;;;;;;;;;;;;;;;;;109566;1250;59619;-81
2023/10/28 15:44:00;;;;;;;;;;;;;;;;;;109679;1250;59268;-81
2023/10/28 15:46:27;;;;;;;;;;;;;;;;;;109567;1251;59804;-81
2023/10/28 15:48:53;;;;;;;;;;;;;;;;;;109446;1250;59074;-81
2023/10/28 15:51:22;;;;;;;;;;;;;;;;;;109308;1251;59059;-80
2023/10/28 15:53:48;;;;;;;;;;;;;;;;;;109432;1251;61973;-81
2023/10/28 15:56:18;;;;;;;;;;;;;;;;;;109485;1250;59640;-81
2023/10/28 15:58:45;;;;;;;;;;;;;;;;;;109422;1251;59437;-80
2023/10/28 16:01:11;;;;;;;;;;;;;;;;;;109476;1250;59085;-80
2023/10/28 16:03:38;;;;;;;;;;;;;;;;;;109440;1250;59141;-80
2023/10/28 16:06:04;;;;;;;;;;;;;;;;;;109493;1250;59009;-81
2023/10/28 16:08:31;;;;;;;;;;;;;;;;;;109456;1250;59678;-81
2023/10/28 16:10:57;;;;;;;;;;;;;;;;;;109483;1250;59005;-81
2023/10/28 16:13:23;;;;;;;;;;;;;;;;;;109485;1250;59305;-81
2023/10/28 16:15:50;;;;;;;;;;;;;;;;;;109497;1250;59227;-80
2023/10/28 16:18:17;;;;;;;;;;;;;;;;;;109488;1250;60009;-81
2023/10/28 16:20:43;;;;;;;;;;;;;;;;;;109486;1250;59058;-80
2023/10/28 16:23:11;;;;;;;;;;;;;;;;;;109427;1250;59712;-80
2023/10/28 16:25:39;;;;;;;;;;;;;;;;;;109415;1251;59583;-80